createdAt,value
2023-01-28T00:00:13.547Z,4.78
2023-01-28T00:03:02.520Z,4.88
2023-01-28T00:05:34.753Z,4.45
2023-01-28T00:08:03.967Z,3.90
2023-01-28T00:10:33.208Z,4.38
2023-01-28T00:13:03.591Z,4.35
2023-01-28T00:15:32.888Z,5.60
2023-01-28T00:18:01.812Z,4.55
2023-01-28T00:20:31.040Z,4.60
2023-01-28T00:23:00.234Z,4.50
2023-01-28T00:25:29.408Z,4.05
2023-01-28T00:27:58.411Z,3.83
2023-01-28T00:30:28.970Z,4.20
2023-01-28T00:32:58.139Z,4.72
2023-01-28T00:35:27.319Z,4.75
2023-01-28T00:37:56.267Z,3.85
2023-01-28T00:40:25.581Z,4.97
2023-01-28T00:42:54.532Z,4.63
2023-01-28T00:45:23.724Z,3.58
2023-01-28T00:47:54.216Z,5.03
2023-01-28T00:50:23.493Z,5.00
2023-01-28T00:52:52.412Z,4.35
2023-01-28T00:55:21.911Z,6.22
2023-01-28T00:57:51.057Z,6.20
2023-01-28T01:00:21.899Z,4.47
2023-01-28T01:02:51.234Z,3.83
2023-01-28T01:05:21.889Z,3.75
2023-01-28T01:10:20.791Z,3.75
2023-01-28T01:12:50.779Z,3.83
2023-01-28T01:17:50.308Z,3.20
2023-01-28T01:20:23.187Z,3.55
2023-01-28T01:22:53.574Z,3.35
2023-01-28T01:25:23.167Z,3.10
2023-01-28T01:27:52.261Z,4.00
2023-01-28T01:30:22.571Z,3.78
2023-01-28T01:32:51.512Z,3.67
2023-01-28T01:35:22.050Z,3.35
2023-01-28T01:40:20.155Z,3.63
2023-01-28T01:42:49.125Z,3.40
2023-01-28T01:45:18.694Z,3.17
2023-01-28T01:48:00.691Z,3.22
2023-01-28T01:50:36.859Z,2.80
2023-01-28T01:53:10.259Z,3.10
2023-01-28T01:55:44.589Z,2.95
2023-01-28T01:58:16.910Z,3.30
2023-01-28T02:00:47.491Z,3.67
2023-01-28T02:03:20.606Z,3.22
2023-01-28T02:05:51.791Z,2.90
2023-01-28T02:08:23.272Z,2.58
2023-01-28T02:10:56.256Z,3.03
2023-01-28T02:13:28.731Z,3.30
2023-01-28T02:16:00.797Z,3.17
2023-01-28T02:18:29.927Z,3.13
2023-01-28T02:21:28.008Z,2.83
2023-01-28T02:24:11.329Z,3.30
2023-01-28T02:27:09.594Z,3.05
2023-01-28T02:29:51.312Z,2.67
2023-01-28T02:32:26.665Z,2.83
2023-01-28T02:35:05.098Z,2.72
2023-01-28T02:37:39.648Z,2.70
2023-01-28T02:40:14.336Z,3.17
2023-01-28T02:42:53.352Z,3.45
2023-01-28T02:45:46.849Z,2.97
2023-01-28T02:48:17.318Z,2.53
2023-01-28T02:50:57.008Z,3.27
2023-01-28T02:53:45.068Z,2.95
2023-01-28T02:56:29.456Z,3.08
2023-01-28T02:59:23.166Z,3.38
2023-01-28T03:01:58.483Z,3.00
2023-01-28T03:04:33.324Z,3.50
2023-01-28T03:07:08.665Z,3.38
2023-01-28T03:09:43.242Z,3.05
2023-01-28T03:12:37.360Z,3.20
2023-01-28T03:15:29.276Z,3.03
2023-01-28T03:18:20.776Z,3.28
2023-01-28T03:21:13.501Z,3.10
2023-01-28T03:24:12.457Z,2.80
2023-01-28T03:27:06.084Z,3.10
2023-01-28T03:29:54.029Z,3.00
2023-01-28T03:32:43.744Z,2.80
2023-01-28T03:35:35.023Z,3.10
2023-01-28T03:38:18.835Z,3.13
2023-01-28T03:40:52.525Z,3.25
2023-01-28T03:43:23.107Z,3.20
2023-01-28T03:45:52.840Z,2.83
2023-01-28T03:50:56.059Z,3.40
2023-01-28T03:53:28.278Z,3.45
2023-01-28T03:55:58.744Z,3.42
2023-01-28T03:58:46.494Z,4.15
2023-01-28T04:01:16.563Z,4.07
2023-01-28T04:03:46.251Z,4.18
2023-01-28T04:06:23.684Z,3.72
2023-01-28T04:09:16.068Z,4.20
2023-01-28T04:12:11.937Z,3.58
2023-01-28T04:14:48.067Z,3.90
2023-01-28T04:17:24.991Z,4.00
2023-01-28T04:19:54.311Z,3.58
2023-01-28T04:22:25.408Z,5.25
2023-01-28T04:24:54.779Z,6.35
2023-01-28T04:27:23.676Z,6.40
2023-01-28T04:29:53.284Z,4.38
2023-01-28T04:32:50.520Z,3.72
2023-01-28T04:35:29.965Z,3.45
2023-01-28T04:38:11.728Z,3.65
2023-01-28T04:41:04.029Z,3.65
2023-01-28T04:43:35.510Z,3.90
2023-01-28T04:46:29.177Z,3.28
2023-01-28T04:49:04.780Z,3.88
2023-01-28T04:51:54.325Z,3.47
2023-01-28T04:54:24.692Z,3.75
2023-01-28T04:56:56.478Z,4.10
2023-01-28T04:59:25.560Z,5.05
2023-01-28T05:01:54.757Z,4.60
2023-01-28T05:04:24.124Z,4.60
2023-01-28T05:09:31.410Z,4.47
2023-01-28T05:12:00.757Z,4.57
2023-01-28T05:14:32.213Z,5.07
2023-01-28T05:17:10.535Z,4.57
2023-01-28T05:19:40.290Z,4.50
2023-01-28T05:22:16.422Z,3.88
2023-01-28T05:24:51.889Z,4.63
2023-01-28T05:27:25.270Z,4.13
2023-01-28T05:29:55.510Z,4.10
2023-01-28T05:32:24.809Z,4.07
2023-01-28T05:34:53.941Z,3.72
2023-01-28T05:37:23.329Z,4.15
2023-01-28T05:39:57.169Z,4.10
2023-01-28T05:42:26.703Z,4.05
2023-01-28T05:45:04.952Z,3.80
2023-01-28T05:47:44.068Z,4.47
2023-01-28T05:50:36.774Z,4.10
2023-01-28T05:53:38.303Z,4.18
2023-01-28T05:56:10.149Z,4.47
2023-01-28T05:58:40.742Z,4.13
2023-01-28T06:01:10.041Z,4.38
2023-01-28T06:03:44.292Z,4.25
2023-01-28T06:06:14.268Z,4.40
2023-01-28T06:08:43.883Z,4.35
2023-01-28T06:11:14.860Z,4.18
2023-01-28T06:13:45.632Z,4.22
2023-01-28T06:16:44.144Z,4.28
2023-01-28T06:19:33.677Z,3.88
2023-01-28T06:22:02.759Z,4.50
2023-01-28T06:24:32.323Z,4.43
2023-01-28T06:27:02.654Z,4.40
2023-01-28T06:29:32.140Z,3.97
2023-01-28T06:32:01.058Z,4.53
2023-01-28T06:34:30.314Z,4.63
2023-01-28T06:36:59.172Z,4.35
2023-01-28T06:39:31.844Z,4.10
2023-01-28T06:42:02.504Z,4.50
2023-01-28T06:44:51.375Z,5.03
2023-01-28T06:47:20.639Z,4.45
2023-01-28T06:49:49.532Z,4.25
2023-01-28T06:52:18.708Z,4.72
2023-01-28T06:54:47.613Z,4.20
2023-01-28T06:57:18.146Z,4.47
2023-01-28T06:59:47.081Z,4.95
2023-01-28T07:02:16.287Z,4.05
2023-01-28T07:04:45.297Z,4.00
2023-01-28T07:07:14.877Z,4.07
2023-01-28T07:09:43.999Z,4.45
2023-01-28T07:12:13.145Z,4.43
2023-01-28T07:14:43.587Z,4.05
2023-01-28T07:17:12.875Z,4.05
2023-01-28T07:19:41.761Z,4.80
2023-01-28T07:22:10.994Z,6.95
2023-01-28T07:24:39.922Z,6.25
2023-01-28T07:27:12.154Z,16.15
2023-01-28T07:29:42.456Z,7.25
2023-01-28T07:32:11.746Z,4.05
2023-01-28T07:34:43.171Z,3.78
2023-01-28T07:37:12.645Z,3.92
2023-01-28T07:39:41.584Z,5.35
2023-01-28T07:42:11.262Z,4.50
2023-01-28T07:44:49.734Z,5.32
2023-01-28T07:47:19.628Z,15.55
2023-01-28T07:49:48.561Z,10.32
2023-01-28T07:52:17.866Z,6.25
2023-01-28T07:54:47.310Z,6.72
2023-01-28T07:57:23.117Z,6.28
2023-01-28T07:59:53.526Z,5.25
2023-01-28T08:02:22.739Z,4.68
2023-01-28T08:04:51.742Z,5.38
2023-01-28T08:07:21.089Z,5.60
2023-01-28T08:09:49.953Z,5.32
2023-01-28T08:12:19.220Z,4.93
2023-01-28T08:14:48.191Z,4.78
2023-01-28T08:17:18.819Z,4.78
2023-01-28T08:19:47.725Z,4.70
2023-01-28T08:22:16.948Z,4.82
2023-01-28T08:24:46.060Z,4.82
2023-01-28T08:27:15.484Z,5.40
2023-01-28T08:29:44.452Z,5.75
2023-01-28T08:32:13.709Z,4.97
2023-01-28T08:34:44.048Z,4.93
2023-01-28T08:37:13.252Z,5.03
2023-01-28T08:39:44.301Z,4.93
2023-01-28T08:42:14.884Z,5.63
2023-01-28T08:44:43.734Z,6.00
2023-01-28T08:47:12.892Z,5.30
2023-01-28T08:49:43.273Z,5.43
2023-01-28T08:52:12.484Z,6.03
2023-01-28T08:54:41.380Z,7.03
2023-01-28T08:57:11.091Z,7.95
2023-01-28T08:59:45.108Z,6.70
2023-01-28T09:02:30.279Z,5.55
2023-01-28T09:05:01.651Z,6.65
2023-01-28T09:07:30.948Z,6.65
2023-01-28T09:09:59.848Z,7.10
2023-01-28T09:12:29.107Z,8.00
2023-01-28T09:14:58.199Z,6.72
2023-01-28T09:17:27.418Z,6.57
2023-01-28T09:19:56.433Z,6.30
2023-01-28T09:22:27.086Z,6.13
2023-01-28T09:24:56.072Z,6.65
2023-01-28T09:27:25.235Z,6.32
2023-01-28T09:29:54.191Z,5.80
2023-01-28T09:32:24.777Z,6.00
2023-01-28T09:34:53.777Z,4.90
2023-01-28T09:37:23.038Z,5.10
2023-01-28T09:39:53.332Z,6.10
2023-01-28T09:42:58.243Z,5.72
2023-01-28T09:45:33.998Z,4.72
2023-01-28T09:48:07.692Z,4.45
2023-01-28T09:50:39.543Z,4.40
2023-01-28T09:53:14.771Z,4.50
2023-01-28T09:55:47.197Z,4.75
2023-01-28T09:58:18.514Z,3.80
2023-01-28T10:00:55.187Z,5.43
2023-01-28T10:03:42.227Z,4.15
2023-01-28T10:06:23.859Z,3.50
2023-01-28T10:09:31.586Z,4.05
2023-01-28T10:12:15.080Z,4.43
2023-01-28T10:14:57.159Z,4.10
2023-01-28T10:17:32.786Z,4.63
2023-01-28T10:20:07.326Z,4.85
2023-01-28T10:22:43.562Z,4.75
2023-01-28T10:25:21.018Z,5.57
2023-01-28T10:27:52.941Z,5.28
2023-01-28T10:30:25.766Z,5.30
2023-01-28T10:32:58.786Z,4.65
2023-01-28T10:35:29.450Z,5.07
2023-01-28T10:40:31.744Z,4.40
2023-01-28T10:43:02.350Z,4.70
2023-01-28T10:45:37.486Z,5.30
2023-01-28T10:48:16.288Z,5.75
2023-01-28T10:50:53.293Z,5.85
2023-01-28T10:53:34.900Z,5.78
2023-01-28T10:56:06.947Z,5.70
2023-01-28T10:58:48.637Z,5.30
2023-01-28T11:01:18.019Z,5.57
2023-01-28T11:03:56.593Z,5.22
2023-01-28T11:06:28.081Z,6.82
2023-01-28T11:08:59.181Z,6.32
2023-01-28T11:11:30.724Z,5.70
2023-01-28T11:14:01.337Z,5.20
2023-01-28T11:16:31.018Z,4.30
2023-01-28T11:19:04.975Z,5.53
2023-01-28T11:21:36.836Z,5.07
2023-01-28T11:24:15.218Z,4.20
2023-01-28T11:26:49.404Z,5.07
2023-01-28T11:29:29.130Z,5.63
2023-01-28T11:32:00.323Z,6.78
2023-01-28T11:34:31.253Z,4.38
2023-01-28T11:37:05.802Z,5.00
2023-01-28T11:39:34.780Z,4.15
2023-01-28T11:42:17.053Z,5.03
2023-01-28T11:44:49.117Z,4.15
2023-01-28T11:47:37.769Z,5.40
2023-01-28T11:50:24.082Z,5.40
2023-01-28T11:53:19.376Z,4.75
2023-01-28T11:56:02.760Z,4.25
2023-01-28T11:58:45.321Z,4.32
2023-01-28T12:01:23.845Z,4.57
2023-01-28T12:04:14.787Z,4.20
2023-01-28T12:07:00.619Z,5.38
2023-01-28T12:09:37.217Z,5.20
2023-01-28T12:12:23.324Z,4.85
2023-01-28T12:15:14.887Z,5.55
2023-01-28T12:18:00.696Z,5.57
2023-01-28T12:20:39.260Z,5.30
2023-01-28T12:23:26.467Z,5.40
2023-01-28T12:26:08.149Z,5.80
2023-01-28T12:28:53.661Z,6.28
2023-01-28T12:31:39.445Z,6.00
2023-01-28T12:34:34.874Z,5.32
2023-01-28T12:37:09.500Z,4.88
2023-01-28T12:39:54.934Z,5.90
2023-01-28T12:42:32.448Z,5.47
2023-01-28T12:45:06.525Z,6.13
2023-01-28T12:47:40.943Z,6.68
2023-01-28T12:50:18.998Z,6.65
2023-01-28T12:52:53.032Z,6.28
2023-01-28T12:55:36.072Z,5.97
2023-01-28T12:58:07.362Z,6.97
2023-01-28T13:00:41.754Z,7.32
2023-01-28T13:03:17.649Z,7.20
2023-01-28T13:05:51.843Z,6.93
2023-01-28T13:08:26.474Z,7.45
2023-01-28T13:10:56.961Z,7.47
2023-01-28T13:13:32.846Z,7.55
2023-01-28T13:16:03.857Z,8.73
2023-01-28T13:18:43.609Z,14.30
2023-01-28T13:21:19.011Z,8.27
2023-01-28T13:23:49.993Z,8.43
2023-01-28T13:26:43.391Z,7.55
2023-01-28T13:29:30.176Z,8.00
2023-01-28T13:32:00.441Z,7.78
2023-01-28T13:34:36.585Z,14.55
2023-01-28T13:37:30.715Z,12.93
2023-01-28T13:40:09.895Z,8.63
2023-01-28T13:42:38.875Z,8.40
2023-01-28T13:45:24.204Z,7.28
2023-01-28T13:47:56.309Z,6.80
2023-01-28T13:50:29.120Z,7.60
2023-01-28T13:53:04.915Z,7.50
2023-01-28T13:55:44.631Z,7.85
2023-01-28T13:58:44.809Z,8.10
2023-01-28T14:01:56.174Z,7.97
2023-01-28T14:05:03.727Z,7.60
2023-01-28T14:08:08.558Z,7.75
2023-01-28T14:10:53.311Z,7.20
2023-01-28T14:13:42.001Z,7.57
2023-01-28T14:16:23.758Z,7.63
2023-01-28T14:18:53.633Z,8.35
2023-01-28T14:21:23.636Z,8.55
2023-01-28T14:29:30.134Z,8.07
2023-01-28T14:32:00.228Z,9.55
2023-01-28T14:34:33.739Z,8.68
2023-01-28T14:37:07.481Z,9.05
2023-01-28T14:39:46.306Z,8.65
2023-01-28T14:42:21.572Z,9.02
2023-01-28T14:44:56.620Z,8.65
2023-01-28T14:47:42.524Z,9.15
2023-01-28T14:50:32.262Z,9.23
2023-01-28T14:53:22.949Z,7.87
2023-01-28T14:56:00.123Z,9.55
2023-01-28T14:58:35.951Z,9.15
2023-01-28T15:01:05.459Z,9.05
2023-01-28T15:03:35.567Z,8.52
2023-01-28T15:06:07.372Z,8.70
2023-01-28T15:08:36.410Z,8.13
2023-01-28T15:11:10.499Z,7.80
2023-01-28T15:13:44.054Z,8.20
2023-01-28T15:16:19.959Z,8.93
2023-01-28T15:18:50.897Z,9.40
2023-01-28T15:21:24.283Z,9.25
2023-01-28T15:23:56.475Z,8.50
2023-01-28T15:26:28.072Z,8.88
2023-01-28T15:28:58.788Z,8.13
2023-01-28T15:31:30.522Z,8.43
2023-01-28T15:34:01.570Z,7.72
2023-01-28T15:36:32.441Z,8.23
2023-01-28T15:39:01.435Z,8.20
2023-01-28T15:41:34.624Z,7.78
2023-01-28T15:44:05.334Z,7.78
2023-01-28T15:46:34.923Z,7.53
2023-01-28T15:49:05.392Z,8.05
2023-01-28T15:51:35.686Z,8.70
2023-01-28T15:54:08.970Z,8.02
2023-01-28T15:56:38.630Z,6.72
2023-01-28T15:59:19.167Z,7.30
2023-01-28T16:01:48.578Z,7.47
2023-01-28T16:04:28.579Z,7.82
2023-01-28T16:09:31.966Z,7.40
2023-01-28T16:12:05.824Z,7.70
2023-01-28T16:14:47.533Z,7.68
2023-01-28T16:17:20.810Z,6.95
2023-01-28T16:19:53.210Z,7.53
2023-01-28T16:22:28.448Z,7.32
2023-01-28T16:24:57.445Z,8.57
2023-01-28T16:27:28.132Z,8.05
2023-01-28T16:29:58.761Z,8.32
2023-01-28T16:32:32.030Z,7.07
2023-01-28T16:35:02.265Z,8.35
2023-01-28T16:37:32.038Z,8.07
2023-01-28T16:40:02.341Z,8.23
2023-01-28T16:42:34.096Z,7.47
2023-01-28T16:45:04.800Z,8.82
2023-01-28T16:47:35.640Z,9.50
2023-01-28T16:50:04.689Z,9.25
2023-01-28T16:52:34.227Z,9.93
2023-01-28T16:55:04.403Z,11.10
2023-01-28T16:57:37.457Z,9.98
2023-01-28T17:00:09.793Z,9.60
2023-01-28T17:02:39.166Z,12.50
2023-01-28T17:05:08.749Z,14.25
2023-01-28T17:07:38.169Z,14.90
2023-01-28T17:10:08.824Z,15.05
2023-01-28T17:12:41.668Z,14.73
2023-01-28T17:15:14.692Z,13.85
2023-01-28T17:17:44.527Z,10.15
2023-01-28T17:20:13.894Z,10.52
2023-01-28T17:22:43.249Z,10.57
2023-01-28T17:25:12.198Z,11.30
2023-01-28T17:27:41.861Z,9.63
2023-01-28T17:30:13.779Z,10.97
2023-01-28T17:32:43.186Z,10.45
2023-01-28T17:35:12.361Z,12.27
2023-01-28T17:37:42.059Z,11.13
2023-01-28T17:40:13.682Z,9.18
2023-01-28T17:42:44.223Z,10.23
2023-01-28T17:45:14.890Z,10.75
2023-01-28T17:47:44.940Z,11.98
2023-01-28T17:50:13.972Z,11.80
2023-01-28T17:52:43.260Z,13.50
2023-01-28T17:55:12.646Z,12.10
2023-01-28T17:57:44.801Z,13.00
2023-01-28T18:00:19.245Z,13.98
2023-01-28T18:02:52.561Z,11.98
2023-01-28T18:05:22.388Z,14.05
2023-01-28T18:07:52.169Z,12.98
2023-01-28T18:10:21.373Z,12.67
2023-01-28T18:12:50.822Z,11.75
2023-01-28T18:15:21.351Z,11.82
2023-01-28T18:17:51.168Z,12.07
2023-01-28T18:20:20.583Z,11.82
2023-01-28T18:22:50.119Z,11.32
2023-01-28T18:25:20.288Z,11.07
2023-01-28T18:27:49.863Z,12.63
2023-01-28T18:30:20.909Z,10.93
2023-01-28T18:32:50.880Z,10.25
2023-01-28T18:35:20.076Z,10.25
2023-01-28T18:37:49.611Z,9.38
2023-01-28T18:40:18.912Z,10.15
2023-01-28T18:42:48.307Z,11.35
2023-01-28T18:45:17.840Z,10.23
2023-01-28T18:47:49.172Z,10.80
2023-01-28T18:50:19.917Z,9.73
2023-01-28T18:52:49.152Z,13.48
2023-01-28T18:55:19.079Z,12.55
2023-01-28T19:00:18.070Z,11.18
2023-01-28T19:02:49.064Z,9.25
2023-01-28T19:05:18.869Z,10.05
2023-01-28T19:07:48.080Z,8.85
2023-01-28T19:10:19.648Z,9.93
2023-01-28T19:12:49.212Z,9.73
2023-01-28T19:15:18.410Z,10.40
2023-01-28T19:17:49.368Z,9.52
2023-01-28T19:20:19.808Z,10.27
2023-01-28T19:22:50.506Z,10.20
2023-01-28T19:25:19.778Z,9.52
2023-01-28T19:27:48.927Z,10.75
2023-01-28T19:30:18.486Z,10.77
2023-01-28T19:32:50.358Z,9.55
2023-01-28T19:35:19.373Z,10.43
2023-01-28T19:37:48.673Z,9.82
2023-01-28T19:40:18.461Z,11.00
2023-01-28T19:42:47.983Z,9.82
2023-01-28T19:45:17.305Z,10.55
2023-01-28T19:47:48.260Z,11.02
2023-01-28T19:52:46.899Z,10.07
2023-01-28T19:55:16.203Z,10.63
2023-01-28T19:57:45.814Z,9.52
2023-01-28T20:00:15.439Z,10.50
2023-01-28T20:02:44.957Z,10.93
2023-01-28T20:05:15.789Z,9.80
2023-01-28T20:07:45.428Z,10.10
2023-01-28T20:10:14.341Z,10.85
2023-01-28T20:12:44.121Z,11.05
2023-01-28T20:15:13.856Z,9.77
2023-01-28T20:20:14.642Z,9.60
2023-01-28T20:22:44.118Z,10.55
2023-01-28T20:25:13.157Z,10.52
2023-01-28T20:27:42.404Z,11.52
2023-01-28T20:30:12.862Z,15.93
2023-01-28T20:32:42.198Z,16.77
2023-01-28T20:35:11.649Z,17.75
2023-01-28T20:37:42.601Z,14.32
2023-01-28T20:40:13.025Z,11.57
2023-01-28T20:42:42.291Z,13.75
2023-01-28T20:45:11.554Z,12.25
2023-01-28T20:47:41.121Z,14.98
2023-01-28T20:50:11.122Z,9.77
2023-01-28T20:55:13.243Z,9.77
2023-01-28T20:57:44.710Z,9.55
2023-01-28T21:00:15.163Z,10.00
2023-01-28T21:02:46.037Z,9.18
2023-01-28T21:05:15.427Z,8.40
2023-01-28T21:07:46.536Z,8.90
2023-01-28T21:10:15.638Z,8.40
2023-01-28T21:12:45.139Z,10.15
2023-01-28T21:15:14.462Z,10.13
2023-01-28T21:17:43.860Z,12.18
2023-01-28T21:20:14.280Z,8.43
2023-01-28T21:22:45.329Z,9.07
2023-01-28T21:25:16.000Z,7.75
2023-01-28T21:27:45.447Z,9.20
2023-01-28T21:30:15.387Z,7.47
2023-01-28T21:32:45.134Z,7.85
2023-01-28T21:35:14.035Z,7.80
2023-01-28T21:37:48.047Z,7.05
2023-01-28T21:40:17.630Z,6.38
2023-01-28T21:42:47.377Z,5.20
2023-01-28T21:45:16.407Z,4.82
2023-01-28T21:47:45.563Z,4.05
2023-01-28T21:50:14.784Z,3.58
2023-01-28T21:52:44.508Z,3.25
2023-01-28T21:55:14.799Z,3.42
2023-01-28T21:57:44.432Z,3.10
2023-01-28T22:00:13.203Z,3.00
2023-01-28T22:02:42.618Z,3.35
2023-01-28T22:05:11.680Z,2.65
2023-01-28T22:07:40.861Z,3.00
2023-01-28T22:10:11.184Z,2.97
2023-01-28T22:12:41.808Z,2.55
2023-01-28T22:17:40.276Z,2.60
2023-01-28T22:20:11.373Z,2.55
2023-01-28T22:22:40.611Z,2.63
2023-01-28T22:25:10.534Z,2.88
2023-01-28T22:27:41.145Z,2.70
2023-01-28T22:32:39.763Z,2.58
2023-01-28T22:35:09.157Z,3.17
2023-01-28T22:37:39.575Z,3.03
2023-01-28T22:40:09.962Z,2.83
2023-01-28T22:42:41.116Z,3.05
2023-01-28T22:45:11.690Z,2.63
2023-01-28T22:47:43.814Z,2.85
2023-01-28T22:50:14.979Z,2.97
2023-01-28T22:52:44.447Z,2.35
2023-01-28T22:55:13.337Z,2.47
2023-01-28T22:57:44.134Z,2.05
2023-01-28T23:00:16.193Z,2.63
2023-01-28T23:02:45.924Z,2.88
2023-01-28T23:05:14.908Z,2.30
2023-01-28T23:07:44.154Z,2.65
2023-01-28T23:10:14.301Z,2.63
2023-01-28T23:12:45.995Z,2.70
2023-01-28T23:15:32.705Z,2.20
2023-01-28T23:18:19.432Z,2.15
2023-01-28T23:21:06.105Z,3.10
2023-01-28T23:23:53.135Z,2.70
2023-01-28T23:26:22.156Z,2.92
2023-01-28T23:28:53.923Z,3.15
2023-01-28T23:31:22.958Z,2.88
2023-01-28T23:33:52.286Z,2.92
2023-01-28T23:36:21.246Z,2.78
2023-01-28T23:38:50.462Z,2.85
2023-01-28T23:41:19.396Z,2.92
2023-01-28T23:43:48.711Z,3.30
2023-01-28T23:46:22.703Z,3.47
2023-01-28T23:48:56.725Z,2.80
2023-01-28T23:51:25.965Z,3.08
2023-01-28T23:53:55.458Z,3.10
2023-01-28T23:56:24.383Z,2.90
2023-01-28T23:58:53.645Z,3.60
